createdAt,value
2022-08-26T00:03:17.371Z,29.50
2022-08-26T00:08:20.446Z,26.20
2022-08-26T00:13:22.151Z,30.00
2022-08-26T00:18:25.995Z,25.50
2022-08-26T00:23:29.011Z,27.40
2022-08-26T00:28:31.139Z,27.60
2022-08-26T00:33:32.853Z,21.60
2022-08-26T00:38:35.513Z,20.90
2022-08-26T00:43:47.416Z,23.20
2022-08-26T00:48:52.348Z,22.60
2022-08-26T00:53:57.418Z,21.00
2022-08-26T00:59:02.019Z,19.90
2022-08-26T01:04:06.148Z,22.00
2022-08-26T01:09:07.996Z,24.70
2022-08-26T01:14:11.819Z,25.90
2022-08-26T01:19:22.928Z,20.90
2022-08-26T01:24:27.667Z,20.00
2022-08-26T01:29:30.133Z,21.40
2022-08-26T01:34:38.938Z,23.00
2022-08-26T01:39:40.933Z,23.20
2022-08-26T01:44:47.441Z,21.10
2022-08-26T01:49:51.510Z,21.20
2022-08-26T01:54:56.042Z,20.90
2022-08-26T02:00:00.035Z,24.40
2022-08-26T02:05:05.404Z,20.80
2022-08-26T02:10:07.525Z,21.30
2022-08-26T02:15:10.118Z,16.50
2022-08-26T02:20:14.963Z,18.80
2022-08-26T02:25:24.825Z,18.40
2022-08-26T02:30:28.184Z,52.90
2022-08-26T02:35:31.074Z,21.70
2022-08-26T02:40:34.977Z,17.90
2022-08-26T02:45:37.502Z,22.90
2022-08-26T02:50:39.902Z,26.80
2022-08-26T02:55:42.314Z,22.50
2022-08-26T03:00:53.085Z,20.50
2022-08-26T03:05:56.927Z,19.40
2022-08-26T03:10:59.535Z,20.40
2022-08-26T03:16:04.018Z,20.20
2022-08-26T03:21:06.893Z,19.50
2022-08-26T03:26:10.958Z,18.20
2022-08-26T03:31:12.951Z,18.40
2022-08-26T03:36:15.455Z,19.20
2022-08-26T03:41:18.083Z,18.10
2022-08-26T03:46:20.998Z,22.30
2022-08-26T03:51:22.811Z,13.50
2022-08-26T03:56:27.283Z,17.80
2022-08-26T04:01:29.674Z,23.00
2022-08-26T04:06:34.466Z,17.00
2022-08-26T04:11:38.241Z,22.00
2022-08-26T04:16:42.119Z,21.40
2022-08-26T04:21:45.724Z,16.60
2022-08-26T04:26:47.918Z,18.10
2022-08-26T04:31:50.231Z,13.80
2022-08-26T04:36:57.898Z,19.30
2022-08-26T04:42:00.031Z,17.30
2022-08-26T04:47:04.107Z,16.10
2022-08-26T04:52:05.914Z,21.60
2022-08-26T04:57:07.759Z,17.20
2022-08-26T05:02:09.587Z,18.90
2022-08-26T05:07:11.443Z,14.30
2022-08-26T05:12:13.145Z,17.40
2022-08-26T05:17:15.202Z,16.80
2022-08-26T05:22:17.441Z,17.10
2022-08-26T05:27:20.084Z,13.50
2022-08-26T05:32:21.932Z,13.20
2022-08-26T05:37:23.700Z,15.40
2022-08-26T05:42:25.470Z,19.60
2022-08-26T05:47:29.487Z,21.10
2022-08-26T05:52:33.031Z,19.90
2022-08-26T05:57:39.960Z,18.50
2022-08-26T06:02:44.210Z,20.30
2022-08-26T06:08:08.662Z,16.30
2022-08-26T06:13:12.242Z,19.10
2022-08-26T06:18:14.713Z,16.70
2022-08-26T06:23:36.189Z,16.30
2022-08-26T06:28:37.947Z,14.10
2022-08-26T06:33:39.812Z,16.10
2022-08-26T06:38:42.065Z,21.00
2022-08-26T06:43:44.180Z,18.70
2022-08-26T06:48:46.366Z,17.10
2022-08-26T06:53:49.245Z,28.00
2022-08-26T06:58:51.506Z,15.50
2022-08-26T07:03:54.746Z,14.60
2022-08-26T07:09:05.153Z,12.00
2022-08-26T07:14:07.973Z,10.90
2022-08-26T07:19:11.311Z,17.20
2022-08-26T07:24:13.299Z,13.40
2022-08-26T07:29:17.001Z,12.80
2022-08-26T07:34:18.917Z,12.60
2022-08-26T07:39:20.862Z,9.20
2022-08-26T07:44:22.826Z,12.30
2022-08-26T07:49:26.974Z,10.90
2022-08-26T07:54:30.120Z,10.80
2022-08-26T07:59:31.919Z,16.40
2022-08-26T08:04:34.611Z,13.20
2022-08-26T08:09:36.467Z,13.40
2022-08-26T08:14:45.419Z,9.50
2022-08-26T08:19:47.122Z,12.50
2022-08-26T08:24:53.051Z,13.80
2022-08-26T08:29:55.160Z,14.00
2022-08-26T08:34:57.520Z,11.70
2022-08-26T08:39:59.674Z,11.00
2022-08-26T08:45:05.068Z,8.10
2022-08-26T08:50:13.105Z,13.10
2022-08-26T08:55:18.012Z,13.20
2022-08-26T09:00:30.312Z,8.10
2022-08-26T09:05:40.255Z,14.80
2022-08-26T09:10:56.522Z,10.20
2022-08-26T09:16:10.008Z,12.70
2022-08-26T09:21:13.158Z,11.10
2022-08-26T09:26:20.315Z,8.90
2022-08-26T09:31:23.976Z,12.90
2022-08-26T09:36:39.364Z,12.20
2022-08-26T09:41:43.646Z,8.90
2022-08-26T09:47:05.592Z,12.40
2022-08-26T09:52:16.588Z,6.50
2022-08-26T09:57:19.970Z,9.80
2022-08-26T10:02:34.101Z,10.60
2022-08-26T10:07:41.695Z,7.80
2022-08-26T10:12:48.270Z,9.10
2022-08-26T10:17:53.925Z,11.30
2022-08-26T10:22:59.529Z,12.90
2022-08-26T10:28:28.106Z,8.40
2022-08-26T10:33:30.650Z,12.60
2022-08-26T10:38:34.995Z,9.70
2022-08-26T10:43:42.900Z,7.40
2022-08-26T10:48:52.092Z,19.40
2022-08-26T10:54:01.106Z,7.00
2022-08-26T10:59:24.208Z,6.10
2022-08-26T11:04:35.459Z,10.00
2022-08-26T11:09:45.441Z,7.70
2022-08-26T11:14:58.482Z,8.40
2022-08-26T11:20:03.861Z,9.90
2022-08-26T11:25:11.414Z,5.50
2022-08-26T11:30:13.604Z,7.50
2022-08-26T11:35:19.288Z,8.90
2022-08-26T11:40:25.033Z,7.20
2022-08-26T11:45:31.214Z,9.80
2022-08-26T11:50:33.414Z,9.80
2022-08-26T11:55:36.751Z,10.70
2022-08-26T12:00:58.050Z,6.70
2022-08-26T12:06:00.063Z,4.90
2022-08-26T12:11:06.852Z,4.90
2022-08-26T12:16:08.958Z,12.50
2022-08-26T12:21:13.481Z,6.90
2022-08-26T12:26:29.248Z,7.90
2022-08-26T12:31:32.954Z,38.60
2022-08-26T12:36:53.305Z,7.90
2022-08-26T12:41:56.574Z,5.60
2022-08-26T12:47:02.571Z,6.60
2022-08-26T12:52:05.362Z,5.40
2022-08-26T12:57:13.460Z,9.00
2022-08-26T13:02:34.530Z,7.50
2022-08-26T13:07:36.711Z,4.90
2022-08-26T13:12:38.644Z,5.00
2022-08-26T13:17:40.443Z,8.70
2022-08-26T13:22:42.170Z,5.90
2022-08-26T13:27:44.508Z,6.60
2022-08-26T13:32:46.434Z,8.20
2022-08-26T13:37:48.165Z,8.60
2022-08-26T13:42:50.245Z,8.30
2022-08-26T13:47:52.168Z,7.70
2022-08-26T13:52:53.871Z,6.20
2022-08-26T13:57:56.231Z,6.30
2022-08-26T14:02:58.619Z,14.10
2022-08-26T14:08:00.391Z,8.20
2022-08-26T14:13:02.375Z,8.60
2022-08-26T14:18:08.311Z,5.40
2022-08-26T14:23:14.170Z,7.00
2022-08-26T14:28:22.670Z,7.30
2022-08-26T14:33:25.962Z,9.90
2022-08-26T14:38:27.938Z,5.40
2022-08-26T14:43:29.703Z,9.90
2022-08-26T14:48:31.618Z,5.90
2022-08-26T14:53:52.027Z,8.20
2022-08-26T14:58:53.836Z,6.90
2022-08-26T15:03:56.721Z,10.10
2022-08-26T15:08:58.861Z,5.20
2022-08-26T15:14:00.648Z,10.80
2022-08-26T15:19:04.665Z,9.10
2022-08-26T15:24:06.665Z,6.10
2022-08-26T15:29:08.388Z,4.90
2022-08-26T15:34:14.581Z,8.50
2022-08-26T15:39:18.482Z,7.20
2022-08-26T15:44:20.776Z,6.90
2022-08-26T15:49:22.663Z,8.30
2022-08-26T15:54:24.486Z,5.30
2022-08-26T15:59:26.307Z,8.70
2022-08-26T16:04:28.709Z,7.50
2022-08-26T16:09:30.851Z,7.10
2022-08-26T16:14:32.600Z,12.00
2022-08-26T16:19:37.552Z,4.70
2022-08-26T16:24:39.642Z,28.00
2022-08-26T16:29:41.331Z,7.80
2022-08-26T16:34:56.155Z,9.20
2022-08-26T16:39:58.527Z,4.90
2022-08-26T16:45:00.522Z,6.60
2022-08-26T16:50:03.431Z,7.90
2022-08-26T16:55:09.686Z,14.50
2022-08-26T17:00:16.469Z,10.10
2022-08-26T17:05:18.181Z,7.50
2022-08-26T17:10:20.322Z,9.90
2022-08-26T17:15:25.535Z,6.00
2022-08-26T17:20:27.430Z,9.80
2022-08-26T17:25:31.773Z,7.70
2022-08-26T17:30:33.519Z,8.00
2022-08-26T17:35:35.609Z,9.50
2022-08-26T17:40:37.398Z,8.70
2022-08-26T17:45:40.432Z,11.80
2022-08-26T17:50:42.845Z,9.20
2022-08-26T17:55:45.200Z,14.10
2022-08-26T18:00:48.268Z,6.90
2022-08-26T18:05:50.817Z,9.80
2022-08-26T18:10:52.503Z,11.20
2022-08-26T18:15:54.306Z,10.30
2022-08-26T18:21:01.919Z,23.60
2022-08-26T18:26:03.968Z,10.20
2022-08-26T18:31:07.186Z,9.80
2022-08-26T18:36:29.181Z,9.30
2022-08-26T18:41:32.264Z,11.60
2022-08-26T18:46:34.070Z,9.70
2022-08-26T18:51:36.871Z,7.70
2022-08-26T18:56:39.281Z,5.90
2022-08-26T19:01:42.427Z,12.10
2022-08-26T19:06:46.686Z,9.80
2022-08-26T19:11:50.159Z,12.30
2022-08-26T19:16:52.625Z,19.80
2022-08-26T19:21:54.648Z,13.40
2022-08-26T19:26:58.382Z,14.00
2022-08-26T19:32:00.631Z,11.80
2022-08-26T19:37:02.665Z,11.60
2022-08-26T19:42:04.569Z,19.40
2022-08-26T19:47:15.704Z,15.40
2022-08-26T19:52:17.450Z,15.10
2022-08-26T19:57:19.397Z,16.70
2022-08-26T20:02:21.149Z,11.20
2022-08-26T20:07:22.987Z,11.10
2022-08-26T20:12:27.599Z,10.30
2022-08-26T20:17:29.305Z,8.50
2022-08-26T20:22:31.111Z,10.40
2022-08-26T20:27:37.662Z,13.40
2022-08-26T20:32:40.813Z,11.00
2022-08-26T20:37:42.695Z,14.30
2022-08-26T20:42:44.487Z,11.10
2022-08-26T20:47:46.319Z,13.70
2022-08-26T20:52:48.122Z,16.20
2022-08-26T20:57:49.870Z,9.00
2022-08-26T21:02:52.247Z,13.20
2022-08-26T21:07:53.967Z,16.10
2022-08-26T21:12:56.284Z,11.30
2022-08-26T21:17:58.302Z,13.00
2022-08-26T21:23:00.090Z,13.80
2022-08-26T21:28:01.797Z,9.90
2022-08-26T21:33:03.677Z,11.70
2022-08-26T21:38:05.338Z,10.80
2022-08-26T21:43:07.134Z,13.40
2022-08-26T21:48:09.199Z,11.50
2022-08-26T21:53:13.618Z,15.00
2022-08-26T21:58:15.540Z,12.40
2022-08-26T22:03:17.586Z,10.60
2022-08-26T22:08:22.971Z,12.00
2022-08-26T22:13:32.245Z,12.50
2022-08-26T22:18:34.732Z,10.10
2022-08-26T22:23:37.361Z,12.70
2022-08-26T22:28:39.528Z,10.10
2022-08-26T22:33:42.487Z,11.80
2022-08-26T22:38:44.623Z,9.40
2022-08-26T22:43:46.629Z,14.40
2022-08-26T22:48:50.316Z,11.20
2022-08-26T22:53:55.850Z,12.00
2022-08-26T22:58:57.677Z,16.80
2022-08-26T23:03:59.389Z,10.30
2022-08-26T23:09:01.152Z,12.20
2022-08-26T23:14:06.420Z,14.10
2022-08-26T23:19:09.928Z,9.60
2022-08-26T23:24:12.139Z,10.60
2022-08-26T23:29:15.723Z,12.80
2022-08-26T23:34:35.985Z,11.10
2022-08-26T23:39:37.843Z,9.40
2022-08-26T23:44:39.685Z,10.30
2022-08-26T23:49:41.890Z,14.80
2022-08-26T23:54:44.028Z,11.80
2022-08-26T23:59:46.107Z,12.20
